createdAt,value
2023-04-29T07:03:05.078Z,96510.63
2023-04-29T08:07:32.484Z,96558.34
2023-04-29T08:09:47.287Z,96557.41
2023-04-29T08:12:05.869Z,96543.59
2023-04-29T08:28:03.257Z,96561.56
2023-04-29T08:29:04.624Z,96557.13
2023-04-29T08:30:06.616Z,96564.44
2023-04-29T08:31:08.004Z,96558.97
2023-04-29T08:32:09.689Z,96571.56
2023-04-29T08:33:13.095Z,96571.16
2023-04-29T08:34:14.890Z,96570.31
2023-04-29T08:35:16.688Z,96573.16
2023-04-29T08:36:18.084Z,96569.28
2023-04-29T08:37:20.546Z,96571.06
2023-04-29T08:38:22.224Z,96571.66
2023-04-29T08:39:23.792Z,96567.69
2023-04-29T08:40:25.204Z,96560.75
2023-04-29T08:41:26.873Z,96562.84
2023-04-29T08:42:36.285Z,96563.84
2023-04-29T08:43:38.093Z,96558.28
2023-04-29T08:44:41.324Z,96568.94
2023-04-29T08:45:43.904Z,96575.94
2023-04-29T08:46:46.634Z,96578.59
2023-04-29T08:48:59.004Z,96576.13
2023-04-29T08:51:19.832Z,96574.97
2023-04-29T08:53:39.925Z,96572.81
2023-04-29T09:06:45.352Z,96574.91
2023-04-29T09:09:07.548Z,96581.53
2023-04-29T09:10:09.763Z,96588.13
2023-04-29T09:11:12.545Z,96595.06
2023-04-29T09:12:13.962Z,96592.25
2023-04-29T09:13:28.634Z,96592.84
2023-04-29T09:14:33.312Z,96589.06
2023-04-29T09:15:40.421Z,96598.78
2023-04-29T09:16:41.992Z,96584.31
2023-04-29T09:17:44.535Z,96594.97
2023-04-29T09:18:50.917Z,96597.19
2023-04-29T09:19:52.350Z,96595.28
2023-04-29T09:20:54.247Z,96596.06
2023-04-29T09:21:58.544Z,96597.13
2023-04-29T09:23:03.526Z,96597.00
2023-04-29T09:24:05.153Z,96590.75
2023-04-29T09:25:13.538Z,96587.50
2023-04-29T09:26:15.866Z,96595.09
2023-04-29T09:27:28.058Z,96595.38
2023-04-29T09:28:30.193Z,96585.44
2023-04-29T09:29:32.997Z,96598.28
2023-04-29T09:30:45.786Z,96594.81
2023-04-29T09:31:48.026Z,96589.41
2023-04-29T09:33:09.633Z,96596.81
2023-04-29T09:34:14.294Z,96598.97
2023-04-29T09:35:22.497Z,96593.97
2023-04-29T09:36:49.531Z,96599.63
2023-04-29T09:37:54.218Z,96597.09
2023-04-29T09:38:55.837Z,96601.56
2023-04-29T09:39:57.414Z,96595.91
2023-04-29T09:41:01.606Z,96598.75
2023-04-29T09:42:04.481Z,96600.38
2023-04-29T09:43:18.584Z,96604.88
2023-04-29T09:44:19.870Z,96604.56
2023-04-29T09:45:37.997Z,96604.13
2023-04-29T09:46:39.603Z,96600.28
2023-04-29T09:47:41.411Z,96603.53
2023-04-29T09:48:42.887Z,96606.75
2023-04-29T09:49:49.938Z,96610.03
2023-04-29T09:51:04.330Z,96611.53
2023-04-29T09:52:20.781Z,96607.63
2023-04-29T09:53:30.332Z,96613.28
2023-04-29T09:54:34.274Z,96613.47
2023-04-29T09:55:54.182Z,96614.41
2023-04-29T09:56:57.390Z,96622.47
2023-04-29T09:57:58.788Z,96613.28
2023-04-29T09:59:08.746Z,96616.50
2023-04-29T10:00:11.026Z,96622.69
2023-04-29T10:01:14.269Z,96613.28
2023-04-29T10:02:18.297Z,96617.03
2023-04-29T10:03:22.135Z,96622.63
2023-04-29T10:04:25.887Z,96619.56
2023-04-29T10:05:31.262Z,96616.50
2023-04-29T10:06:32.725Z,96621.09
2023-04-29T10:07:34.203Z,96617.53
2023-04-29T10:08:35.999Z,96622.06
2023-04-29T10:09:40.754Z,96621.44
2023-04-29T10:10:42.951Z,96613.94
2023-04-29T10:11:45.725Z,96621.72
2023-04-29T10:12:47.628Z,96619.03
2023-04-29T10:13:52.144Z,96608.91
2023-04-29T10:15:05.729Z,96618.75
2023-04-29T10:16:27.849Z,96615.47
2023-04-29T10:17:54.715Z,96621.28
2023-04-29T10:18:59.916Z,96620.84
2023-04-29T10:20:06.152Z,96619.72
2023-04-29T10:21:11.791Z,96623.63
2023-04-29T10:22:22.619Z,96619.41
2023-04-29T10:23:25.063Z,96609.75
2023-04-29T10:24:27.123Z,96617.75
2023-04-29T10:25:29.559Z,96617.19
2023-04-29T10:26:32.081Z,96613.25
2023-04-29T10:27:34.894Z,96617.34
2023-04-29T10:28:39.660Z,96614.16
2023-04-29T10:29:43.694Z,96616.00
2023-04-29T10:30:45.981Z,96608.34
2023-04-29T10:31:49.620Z,96617.44
2023-04-29T10:32:52.811Z,96609.06
2023-04-29T10:33:58.212Z,96613.84
2023-04-29T10:35:00.528Z,96611.16
2023-04-29T10:36:03.334Z,96599.72
2023-04-29T10:37:06.635Z,96597.28
2023-04-29T10:38:24.042Z,96612.06
2023-04-29T10:39:57.772Z,96613.25
2023-04-29T10:41:03.732Z,96613.50
2023-04-29T10:42:15.997Z,96595.50
2023-04-29T10:43:23.564Z,96604.97
2023-04-29T10:44:25.094Z,96608.69
2023-04-29T10:45:28.884Z,96606.28
2023-04-29T10:46:30.444Z,96606.44
2023-04-29T10:47:32.018Z,96598.44
2023-04-29T10:48:33.682Z,96605.34
2023-04-29T10:49:35.197Z,96610.44
2023-04-29T10:50:36.579Z,96610.91
2023-04-29T10:51:41.992Z,96613.88
2023-04-29T10:52:52.678Z,96603.81
2023-04-29T10:54:10.547Z,96606.53
2023-04-29T10:55:12.326Z,96614.25
2023-04-29T10:56:13.697Z,96601.88
2023-04-29T10:57:21.709Z,96605.00
2023-04-29T10:58:41.551Z,96603.28
2023-04-29T10:59:42.896Z,96610.53
2023-04-29T11:00:44.296Z,96607.44
2023-04-29T11:01:48.094Z,96583.78
2023-04-29T11:02:49.596Z,96598.94
2023-04-29T11:04:02.103Z,96599.53
2023-04-29T11:05:09.104Z,96601.88
2023-04-29T11:06:11.503Z,96602.16
2023-04-29T11:07:28.255Z,96603.09
2023-04-29T11:08:30.444Z,96587.63
2023-04-29T11:09:37.085Z,96597.94
2023-04-29T11:10:41.899Z,96590.84
2023-04-29T11:11:53.950Z,96598.69
2023-04-29T11:13:21.860Z,96597.66
2023-04-29T11:14:30.482Z,96584.13
2023-04-29T11:15:32.731Z,96594.94
2023-04-29T11:16:37.702Z,96592.25
2023-04-29T11:17:39.351Z,96593.72
2023-04-29T11:19:09.117Z,96586.16
2023-04-29T11:20:13.890Z,96587.63
2023-04-29T11:21:15.533Z,96595.34
2023-04-29T11:22:23.192Z,96590.69
2023-04-29T11:23:26.176Z,96591.09
2023-04-29T11:24:29.658Z,96585.34
2023-04-29T11:25:31.046Z,96582.91
2023-04-29T11:26:34.731Z,96579.25
2023-04-29T11:27:38.480Z,96593.03
2023-04-29T11:28:43.278Z,96582.47
2023-04-29T11:29:46.574Z,96574.38
2023-04-29T11:30:48.658Z,96582.44
2023-04-29T11:31:58.713Z,96583.84
2023-04-29T11:33:00.372Z,96581.22
2023-04-29T11:34:04.236Z,96582.72
2023-04-29T11:35:13.593Z,96583.84
2023-04-29T11:36:15.167Z,96585.84
2023-04-29T11:37:26.971Z,96581.44
2023-04-29T11:38:30.201Z,96591.56
2023-04-29T11:39:36.116Z,96588.91
2023-04-29T11:40:42.271Z,96589.38
2023-04-29T11:41:43.623Z,96593.41
2023-04-29T11:42:46.816Z,96595.47
2023-04-29T11:43:56.529Z,96591.16
2023-04-29T11:45:00.280Z,96578.94
2023-04-29T11:46:01.838Z,96587.94
2023-04-29T11:47:06.903Z,96577.34
2023-04-29T11:48:08.350Z,96599.47
2023-04-29T11:49:09.728Z,96595.00
2023-04-29T11:50:11.601Z,96599.03
2023-04-29T11:51:13.951Z,96586.75
2023-04-29T11:52:16.361Z,96593.31
2023-04-29T11:53:22.364Z,96598.41
2023-04-29T11:54:26.364Z,96599.72
2023-04-29T11:55:27.935Z,96599.34
2023-04-29T11:56:29.415Z,96599.13
2023-04-29T11:57:31.152Z,96591.56
2023-04-29T11:58:32.889Z,96592.69
2023-04-29T11:59:34.427Z,96596.94
2023-04-29T12:00:36.407Z,96594.19
2023-04-29T12:01:38.229Z,96603.81
2023-04-29T12:02:43.625Z,96603.97
2023-04-29T12:03:46.457Z,96604.38
2023-04-29T12:04:48.402Z,96602.09
2023-04-29T12:05:55.249Z,96603.34
2023-04-29T12:06:59.909Z,96600.13
2023-04-29T12:08:01.611Z,96606.59
2023-04-29T12:09:04.383Z,96604.28
2023-04-29T12:10:13.459Z,96593.81
2023-04-29T12:11:15.028Z,96596.69
2023-04-29T12:12:16.902Z,96608.06
2023-04-29T12:13:19.587Z,96609.09
2023-04-29T12:14:21.205Z,96616.03
2023-04-29T12:15:22.843Z,96609.19
2023-04-29T12:16:24.512Z,96617.03
2023-04-29T12:17:26.101Z,96616.97
2023-04-29T12:18:28.950Z,96606.34
2023-04-29T12:19:30.984Z,96619.56
2023-04-29T12:20:32.618Z,96611.72
2023-04-29T12:21:34.458Z,96603.09
2023-04-29T12:22:36.184Z,96615.09
2023-04-29T12:23:37.660Z,96611.91
2023-04-29T12:24:41.012Z,96627.13
2023-04-29T12:25:42.677Z,96602.59
2023-04-29T12:26:45.374Z,96618.09
2023-04-29T12:27:46.909Z,96612.66
2023-04-29T12:28:49.363Z,96616.31
2023-04-29T12:29:52.726Z,96618.47
2023-04-29T12:30:55.020Z,96619.16
2023-04-29T12:31:56.505Z,96624.69
2023-04-29T12:32:58.097Z,96620.47
2023-04-29T12:33:59.545Z,96619.25
2023-04-29T12:35:01.055Z,96615.31
2023-04-29T12:36:02.490Z,96628.72
2023-04-29T12:37:03.947Z,96616.53
2023-04-29T12:38:05.499Z,96629.72
2023-04-29T12:39:10.179Z,96618.47
2023-04-29T12:40:17.830Z,96623.84
2023-04-29T12:41:19.252Z,96614.53
2023-04-29T12:42:20.821Z,96622.25
2023-04-29T12:43:31.640Z,96610.78
2023-04-29T12:44:40.776Z,96621.09
2023-04-29T12:45:42.738Z,96622.47
2023-04-29T12:46:44.151Z,96623.56
2023-04-29T12:47:45.637Z,96630.09
2023-04-29T12:48:47.276Z,96619.19
2023-04-29T12:49:49.988Z,96633.56
2023-04-29T12:50:52.309Z,96629.50
2023-04-29T12:51:53.868Z,96621.31
2023-04-29T12:52:56.277Z,96619.31
2023-04-29T12:53:59.446Z,96622.47
2023-04-29T12:55:00.921Z,96626.41
2023-04-29T12:56:02.408Z,96616.69
2023-04-29T12:57:04.291Z,96629.44
2023-04-29T12:58:06.178Z,96629.06
2023-04-29T12:59:09.858Z,96621.13
2023-04-29T13:00:12.029Z,96623.28
2023-04-29T13:01:16.585Z,96624.47
2023-04-29T13:02:20.213Z,96626.91
2023-04-29T13:03:22.474Z,96619.03
2023-04-29T13:04:24.593Z,96625.09
2023-04-29T13:05:26.117Z,96629.56
2023-04-29T13:06:27.601Z,96588.19
2023-04-29T13:07:29.170Z,96625.63
2023-04-29T13:08:30.767Z,96631.63
2023-04-29T13:09:32.258Z,96628.19
2023-04-29T13:10:34.510Z,96627.56
2023-04-29T13:11:36.942Z,96627.38
2023-04-29T13:12:39.015Z,96635.97
2023-04-29T13:13:40.662Z,96624.09
2023-04-29T13:14:41.994Z,96638.03
2023-04-29T13:15:43.512Z,96639.75
2023-04-29T13:16:46.007Z,96637.59
2023-04-29T13:17:47.459Z,96636.72
2023-04-29T13:19:01.808Z,96633.44
2023-04-29T13:20:11.741Z,96637.88
2023-04-29T13:21:13.295Z,96626.28
2023-04-29T13:22:14.639Z,96623.41
2023-04-29T13:23:16.450Z,96633.97
2023-04-29T13:24:20.097Z,96619.69
2023-04-29T13:25:21.576Z,96632.47
2023-04-29T13:26:24.869Z,96648.06
2023-04-29T13:27:26.296Z,96638.97
2023-04-29T13:28:27.655Z,96640.84
2023-04-29T13:29:29.036Z,96648.31
2023-04-29T13:30:30.570Z,96638.34
2023-04-29T13:31:32.271Z,96637.47
2023-04-29T13:32:43.896Z,96639.88
2023-04-29T13:33:48.491Z,96642.81
2023-04-29T13:34:50.904Z,96642.44
2023-04-29T13:35:52.398Z,96650.16
2023-04-29T13:36:53.830Z,96643.00
2023-04-29T13:37:55.208Z,96642.63
2023-04-29T13:38:56.605Z,96648.31
2023-04-29T13:39:57.957Z,96647.00
2023-04-29T13:40:59.339Z,96653.03
2023-04-29T13:42:00.782Z,96649.19
2023-04-29T13:43:06.422Z,96654.47
2023-04-29T13:44:23.876Z,96655.78
2023-04-29T13:45:30.665Z,96654.47
2023-04-29T13:46:32.794Z,96657.31
2023-04-29T13:47:34.452Z,96661.53
2023-04-29T13:49:11.139Z,96661.06
2023-04-29T13:53:41.292Z,96665.31
2023-04-29T13:57:36.913Z,96660.97
2023-04-29T13:59:36.193Z,96654.84
2023-04-29T14:03:40.692Z,96668.00
2023-04-29T14:04:42.186Z,96663.41
2023-04-29T14:05:44.444Z,96660.97
2023-04-29T14:06:46.048Z,96668.44
2023-04-29T14:07:47.563Z,96655.09
2023-04-29T14:08:48.910Z,96660.19
2023-04-29T14:09:50.313Z,96647.88
2023-04-29T14:10:51.728Z,96661.34
2023-04-29T14:11:54.097Z,96661.63
2023-04-29T14:12:55.910Z,96652.09
2023-04-29T14:13:57.370Z,96659.38
2023-04-29T14:15:00.350Z,96657.81
2023-04-29T14:16:04.668Z,96670.91
2023-04-29T14:17:06.892Z,96659.28
2023-04-29T14:18:09.513Z,96655.63
2023-04-29T14:19:11.695Z,96661.34
2023-04-29T14:20:13.455Z,96662.47
2023-04-29T14:21:14.966Z,96661.75
2023-04-29T14:22:16.622Z,96667.16
2023-04-29T14:23:17.999Z,96658.91
2023-04-29T14:24:19.371Z,96659.94
2023-04-29T14:25:21.025Z,96667.47
2023-04-29T14:26:28.218Z,96665.41
2023-04-29T14:27:30.610Z,96662.19
2023-04-29T14:28:32.110Z,96671.13
2023-04-29T14:29:33.467Z,96674.25
2023-04-29T14:30:34.865Z,96672.09
2023-04-29T14:31:39.767Z,96672.22
2023-04-29T14:32:41.211Z,96669.84
2023-04-29T14:33:42.638Z,96670.84
2023-04-29T14:34:43.997Z,96678.72
2023-04-29T14:35:46.249Z,96668.09
2023-04-29T14:36:47.721Z,96675.00
2023-04-29T14:37:50.395Z,96674.94
2023-04-29T14:38:51.941Z,96662.66
2023-04-29T14:39:53.412Z,96678.69
2023-04-29T14:40:54.901Z,96687.25
2023-04-29T14:41:56.281Z,96689.00
2023-04-29T14:42:58.127Z,96681.44
2023-04-29T14:44:00.155Z,96675.59
2023-04-29T14:45:01.565Z,96681.72
2023-04-29T14:46:03.377Z,96684.41
2023-04-29T14:47:04.980Z,96679.94
2023-04-29T14:48:06.544Z,96693.13
2023-04-29T14:49:07.991Z,96688.63
2023-04-29T14:50:10.271Z,96687.50
2023-04-29T14:51:12.189Z,96687.34
2023-04-29T14:52:13.653Z,96693.19
2023-04-29T14:53:15.105Z,96687.53
2023-04-29T14:54:16.437Z,96687.19
2023-04-29T14:55:17.927Z,96684.75
2023-04-29T14:56:19.377Z,96688.88
2023-04-29T14:57:21.289Z,96693.66
2023-04-29T14:58:22.701Z,96692.34
